sensor_id;sensor_type;location;lat;lon;timestamp;P1;durP1;ratioP1;P2;durP2;ratioP2
13816;SDS011;6979;52.116;5.286;2023-03-14T00:00:25;10.60;;;6.00;;
13816;SDS011;6979;52.116;5.286;2023-03-14T00:02:52;12.10;;;5.17;;
13816;SDS011;6979;52.116;5.286;2023-03-14T00:05:19;11.50;;;5.77;;
13816;SDS011;6979;52.116;5.286;2023-03-14T00:07:46;12.47;;;6.20;;
13816;SDS011;6979;52.116;5.286;2023-03-14T00:10:13;11.77;;;5.23;;
13816;SDS011;6979;52.116;5.286;2023-03-14T00:12:41;15.73;;;5.93;;
13816;SDS011;6979;52.116;5.286;2023-03-14T00:15:08;9.67;;;5.10;;
13816;SDS011;6979;52.116;5.286;2023-03-14T00:17:38;12.47;;;5.40;;
13816;SDS011;6979;52.116;5.286;2023-03-14T00:20:06;10.07;;;5.23;;
13816;SDS011;6979;52.116;5.286;2023-03-14T00:22:35;11.07;;;5.30;;
13816;SDS011;6979;52.116;5.286;2023-03-14T00:25:06;11.03;;;4.80;;
13816;SDS011;6979;52.116;5.286;2023-03-14T00:27:34;13.87;;;5.37;;
13816;SDS011;6979;52.116;5.286;2023-03-14T00:30:01;12.13;;;6.13;;
13816;SDS011;6979;52.116;5.286;2023-03-14T00:32:29;14.70;;;5.67;;
13816;SDS011;6979;52.116;5.286;2023-03-14T00:34:57;11.97;;;4.47;;
13816;SDS011;6979;52.116;5.286;2023-03-14T00:37:25;8.63;;;4.40;;
13816;SDS011;6979;52.116;5.286;2023-03-14T00:39:52;13.20;;;3.70;;
13816;SDS011;6979;52.116;5.286;2023-03-14T00:42:19;7.57;;;3.60;;
13816;SDS011;6979;52.116;5.286;2023-03-14T00:44:46;8.70;;;3.77;;
13816;SDS011;6979;52.116;5.286;2023-03-14T00:47:13;12.97;;;4.30;;
13816;SDS011;6979;52.116;5.286;2023-03-14T00:49:41;9.63;;;3.27;;
13816;SDS011;6979;52.116;5.286;2023-03-14T00:52:09;7.77;;;2.93;;
13816;SDS011;6979;52.116;5.286;2023-03-14T00:54:36;6.87;;;2.97;;
13816;SDS011;6979;52.116;5.286;2023-03-14T00:57:03;10.27;;;3.90;;
13816;SDS011;6979;52.116;5.286;2023-03-14T00:59:30;8.10;;;3.10;;
13816;SDS011;6979;52.116;5.286;2023-03-14T01:01:57;6.27;;;2.70;;
13816;SDS011;6979;52.116;5.286;2023-03-14T01:04:24;5.23;;;2.73;;
13816;SDS011;6979;52.116;5.286;2023-03-14T01:06:53;7.07;;;2.57;;
13816;SDS011;6979;52.116;5.286;2023-03-14T01:09:21;6.93;;;2.47;;
13816;SDS011;6979;52.116;5.286;2023-03-14T01:11:48;6.00;;;3.03;;
13816;SDS011;6979;52.116;5.286;2023-03-14T01:14:16;7.50;;;3.83;;
13816;SDS011;6979;52.116;5.286;2023-03-14T01:16:43;7.00;;;3.53;;
13816;SDS011;6979;52.116;5.286;2023-03-14T01:19:09;6.17;;;2.97;;
13816;SDS011;6979;52.116;5.286;2023-03-14T01:21:36;6.47;;;2.83;;
13816;SDS011;6979;52.116;5.286;2023-03-14T01:24:04;7.33;;;2.97;;
13816;SDS011;6979;52.116;5.286;2023-03-14T01:26:34;5.63;;;2.50;;
13816;SDS011;6979;52.116;5.286;2023-03-14T01:29:03;7.50;;;3.90;;
13816;SDS011;6979;52.116;5.286;2023-03-14T01:31:32;5.90;;;2.90;;
13816;SDS011;6979;52.116;5.286;2023-03-14T01:33:58;4.50;;;2.83;;
13816;SDS011;6979;52.116;5.286;2023-03-14T01:36:25;6.03;;;2.90;;
13816;SDS011;6979;52.116;5.286;2023-03-14T01:38:53;3.27;;;2.60;;
13816;SDS011;6979;52.116;5.286;2023-03-14T01:41:22;7.53;;;2.80;;
13816;SDS011;6979;52.116;5.286;2023-03-14T01:43:53;4.87;;;2.50;;
13816;SDS011;6979;52.116;5.286;2023-03-14T01:46:22;4.17;;;2.50;;
13816;SDS011;6979;52.116;5.286;2023-03-14T01:48:58;4.53;;;2.03;;
13816;SDS011;6979;52.116;5.286;2023-03-14T01:51:33;2.77;;;2.00;;
13816;SDS011;6979;52.116;5.286;2023-03-14T01:54:06;7.37;;;2.90;;
13816;SDS011;6979;52.116;5.286;2023-03-14T01:56:36;5.50;;;3.00;;
13816;SDS011;6979;52.116;5.286;2023-03-14T01:59:07;5.83;;;2.67;;
13816;SDS011;6979;52.116;5.286;2023-03-14T02:01:36;5.00;;;2.60;;
13816;SDS011;6979;52.116;5.286;2023-03-14T02:04:05;6.67;;;2.20;;
13816;SDS011;6979;52.116;5.286;2023-03-14T02:06:35;7.37;;;2.53;;
13816;SDS011;6979;52.116;5.286;2023-03-14T02:09:11;6.80;;;2.87;;
13816;SDS011;6979;52.116;5.286;2023-03-14T02:11:38;5.20;;;2.50;;
13816;SDS011;6979;52.116;5.286;2023-03-14T02:14:16;10.87;;;2.77;;
13816;SDS011;6979;52.116;5.286;2023-03-14T02:17:11;4.87;;;2.47;;
13816;SDS011;6979;52.116;5.286;2023-03-14T02:20:13;5.17;;;2.13;;
13816;SDS011;6979;52.116;5.286;2023-03-14T02:22:55;6.70;;;2.77;;
13816;SDS011;6979;52.116;5.286;2023-03-14T02:25:26;4.37;;;1.90;;
13816;SDS011;6979;52.116;5.286;2023-03-14T02:28:01;5.47;;;2.37;;
13816;SDS011;6979;52.116;5.286;2023-03-14T02:30:29;7.87;;;2.43;;
13816;SDS011;6979;52.116;5.286;2023-03-14T02:32:58;5.00;;;2.10;;
13816;SDS011;6979;52.116;5.286;2023-03-14T02:35:29;7.03;;;1.90;;
13816;SDS011;6979;52.116;5.286;2023-03-14T02:38:00;5.37;;;2.30;;
13816;SDS011;6979;52.116;5.286;2023-03-14T02:40:37;3.93;;;1.87;;
13816;SDS011;6979;52.116;5.286;2023-03-14T02:43:05;4.73;;;1.83;;
13816;SDS011;6979;52.116;5.286;2023-03-14T02:45:39;3.70;;;1.70;;
13816;SDS011;6979;52.116;5.286;2023-03-14T02:48:09;8.47;;;2.57;;
13816;SDS011;6979;52.116;5.286;2023-03-14T02:50:40;3.57;;;1.97;;
13816;SDS011;6979;52.116;5.286;2023-03-14T02:53:08;7.30;;;2.83;;
13816;SDS011;6979;52.116;5.286;2023-03-14T02:55:35;4.17;;;2.10;;
13816;SDS011;6979;52.116;5.286;2023-03-14T02:58:09;6.63;;;2.20;;
13816;SDS011;6979;52.116;5.286;2023-03-14T03:00:36;6.10;;;2.80;;
13816;SDS011;6979;52.116;5.286;2023-03-14T03:03:05;5.40;;;2.80;;
13816;SDS011;6979;52.116;5.286;2023-03-14T03:05:32;6.90;;;1.90;;
13816;SDS011;6979;52.116;5.286;2023-03-14T03:08:01;6.90;;;2.60;;
13816;SDS011;6979;52.116;5.286;2023-03-14T03:10:28;5.27;;;2.40;;
13816;SDS011;6979;52.116;5.286;2023-03-14T03:12:56;7.47;;;2.60;;
13816;SDS011;6979;52.116;5.286;2023-03-14T03:15:26;3.87;;;2.57;;
13816;SDS011;6979;52.116;5.286;2023-03-14T03:17:53;6.23;;;2.50;;
13816;SDS011;6979;52.116;5.286;2023-03-14T03:20:20;6.17;;;3.07;;
13816;SDS011;6979;52.116;5.286;2023-03-14T03:22:47;4.77;;;2.53;;
13816;SDS011;6979;52.116;5.286;2023-03-14T03:25:15;6.37;;;2.90;;
13816;SDS011;6979;52.116;5.286;2023-03-14T03:27:44;7.13;;;3.20;;
13816;SDS011;6979;52.116;5.286;2023-03-14T03:30:13;6.10;;;2.47;;
13816;SDS011;6979;52.116;5.286;2023-03-14T03:32:42;5.77;;;3.00;;
13816;SDS011;6979;52.116;5.286;2023-03-14T03:35:10;8.83;;;2.90;;
13816;SDS011;6979;52.116;5.286;2023-03-14T03:37:38;7.00;;;3.23;;
13816;SDS011;6979;52.116;5.286;2023-03-14T03:40:06;6.10;;;3.53;;
13816;SDS011;6979;52.116;5.286;2023-03-14T03:42:35;7.57;;;3.17;;
13816;SDS011;6979;52.116;5.286;2023-03-14T03:45:04;6.43;;;2.60;;
13816;SDS011;6979;52.116;5.286;2023-03-14T03:47:35;6.37;;;2.57;;
13816;SDS011;6979;52.116;5.286;2023-03-14T03:50:04;7.03;;;3.50;;
13816;SDS011;6979;52.116;5.286;2023-03-14T03:52:31;5.43;;;2.67;;
13816;SDS011;6979;52.116;5.286;2023-03-14T03:54:58;9.60;;;3.30;;
13816;SDS011;6979;52.116;5.286;2023-03-14T03:57:27;6.00;;;2.53;;
13816;SDS011;6979;52.116;5.286;2023-03-14T03:59:55;7.30;;;2.70;;
13816;SDS011;6979;52.116;5.286;2023-03-14T04:02:22;6.53;;;2.60;;
13816;SDS011;6979;52.116;5.286;2023-03-14T04:04:49;6.60;;;2.80;;
13816;SDS011;6979;52.116;5.286;2023-03-14T04:07:18;7.50;;;2.70;;
13816;SDS011;6979;52.116;5.286;2023-03-14T04:09:45;6.00;;;3.03;;
13816;SDS011;6979;52.116;5.286;2023-03-14T04:12:31;6.93;;;2.77;;
13816;SDS011;6979;52.116;5.286;2023-03-14T04:15:11;7.60;;;2.73;;
13816;SDS011;6979;52.116;5.286;2023-03-14T04:17:43;9.47;;;3.20;;
13816;SDS011;6979;52.116;5.286;2023-03-14T04:20:12;7.63;;;3.03;;
13816;SDS011;6979;52.116;5.286;2023-03-14T04:22:41;6.00;;;2.80;;
13816;SDS011;6979;52.116;5.286;2023-03-14T04:25:08;4.87;;;2.40;;
13816;SDS011;6979;52.116;5.286;2023-03-14T04:27:40;7.23;;;2.63;;
13816;SDS011;6979;52.116;5.286;2023-03-14T04:30:15;5.87;;;2.63;;
13816;SDS011;6979;52.116;5.286;2023-03-14T04:32:50;8.63;;;2.70;;
13816;SDS011;6979;52.116;5.286;2023-03-14T04:35:18;6.40;;;2.77;;
13816;SDS011;6979;52.116;5.286;2023-03-14T04:37:47;6.77;;;2.60;;
13816;SDS011;6979;52.116;5.286;2023-03-14T04:40:15;6.53;;;2.90;;
13816;SDS011;6979;52.116;5.286;2023-03-14T04:42:42;7.13;;;3.07;;
13816;SDS011;6979;52.116;5.286;2023-03-14T04:45:09;6.83;;;3.23;;
13816;SDS011;6979;52.116;5.286;2023-03-14T04:47:38;6.70;;;2.70;;
13816;SDS011;6979;52.116;5.286;2023-03-14T04:50:08;6.20;;;3.20;;
13816;SDS011;6979;52.116;5.286;2023-03-14T04:52:36;6.90;;;2.83;;
13816;SDS011;6979;52.116;5.286;2023-03-14T04:55:04;5.07;;;2.13;;
13816;SDS011;6979;52.116;5.286;2023-03-14T04:57:32;3.57;;;2.20;;
13816;SDS011;6979;52.116;5.286;2023-03-14T04:59:59;4.53;;;2.43;;
13816;SDS011;6979;52.116;5.286;2023-03-14T05:02:45;4.50;;;2.53;;
13816;SDS011;6979;52.116;5.286;2023-03-14T05:05:32;6.30;;;3.43;;
13816;SDS011;6979;52.116;5.286;2023-03-14T05:08:07;6.93;;;3.43;;
13816;SDS011;6979;52.116;5.286;2023-03-14T05:10:42;4.07;;;3.03;;
13816;SDS011;6979;52.116;5.286;2023-03-14T05:13:30;4.57;;;2.70;;
13816;SDS011;6979;52.116;5.286;2023-03-14T05:16:19;5.83;;;2.80;;
13816;SDS011;6979;52.116;5.286;2023-03-14T05:19:02;2.77;;;2.43;;
13816;SDS011;6979;52.116;5.286;2023-03-14T05:21:47;4.17;;;2.87;;
13816;SDS011;6979;52.116;5.286;2023-03-14T05:24:33;5.47;;;2.57;;
13816;SDS011;6979;52.116;5.286;2023-03-14T05:27:16;6.83;;;3.13;;
13816;SDS011;6979;52.116;5.286;2023-03-14T05:30:07;6.17;;;2.97;;
13816;SDS011;6979;52.116;5.286;2023-03-14T05:32:50;6.13;;;3.43;;
13816;SDS011;6979;52.116;5.286;2023-03-14T05:35:29;3.13;;;2.53;;
13816;SDS011;6979;52.116;5.286;2023-03-14T05:38:25;5.40;;;3.20;;
13816;SDS011;6979;52.116;5.286;2023-03-14T05:41:10;5.83;;;3.60;;
13816;SDS011;6979;52.116;5.286;2023-03-14T05:43:57;6.57;;;3.43;;
13816;SDS011;6979;52.116;5.286;2023-03-14T05:46:34;4.60;;;2.97;;
13816;SDS011;6979;52.116;5.286;2023-03-14T05:49:21;4.40;;;3.40;;
13816;SDS011;6979;52.116;5.286;2023-03-14T05:51:57;5.47;;;3.50;;
13816;SDS011;6979;52.116;5.286;2023-03-14T05:54:24;5.50;;;4.13;;
13816;SDS011;6979;52.116;5.286;2023-03-14T05:57:04;6.17;;;4.37;;
13816;SDS011;6979;52.116;5.286;2023-03-14T05:59:59;5.97;;;4.70;;
13816;SDS011;6979;52.116;5.286;2023-03-14T06:02:38;5.07;;;4.47;;
13816;SDS011;6979;52.116;5.286;2023-03-14T06:05:15;7.57;;;5.13;;
13816;SDS011;6979;52.116;5.286;2023-03-14T06:07:42;5.83;;;5.20;;
13816;SDS011;6979;52.116;5.286;2023-03-14T06:10:09;6.00;;;5.40;;
13816;SDS011;6979;52.116;5.286;2023-03-14T06:12:37;8.57;;;6.17;;
13816;SDS011;6979;52.116;5.286;2023-03-14T06:15:06;7.07;;;5.33;;
13816;SDS011;6979;52.116;5.286;2023-03-14T06:17:34;7.50;;;6.73;;
13816;SDS011;6979;52.116;5.286;2023-03-14T06:20:05;6.20;;;5.50;;
13816;SDS011;6979;52.116;5.286;2023-03-14T06:22:33;11.00;;;6.80;;
13816;SDS011;6979;52.116;5.286;2023-03-14T06:25:01;7.00;;;6.30;;
13816;SDS011;6979;52.116;5.286;2023-03-14T06:27:28;5.93;;;5.53;;
13816;SDS011;6979;52.116;5.286;2023-03-14T06:29:56;6.40;;;5.80;;
13816;SDS011;6979;52.116;5.286;2023-03-14T06:32:26;6.17;;;5.40;;
13816;SDS011;6979;52.116;5.286;2023-03-14T06:34:56;4.40;;;3.73;;
13816;SDS011;6979;52.116;5.286;2023-03-14T06:37:26;3.40;;;2.67;;
13816;SDS011;6979;52.116;5.286;2023-03-14T06:39:54;2.27;;;2.07;;
13816;SDS011;6979;52.116;5.286;2023-03-14T06:42:41;1.20;;;1.10;;
13816;SDS011;6979;52.116;5.286;2023-03-14T06:45:08;1.30;;;1.00;;
13816;SDS011;6979;52.116;5.286;2023-03-14T06:47:36;0.90;;;0.63;;
13816;SDS011;6979;52.116;5.286;2023-03-14T06:50:04;0.63;;;0.63;;
13816;SDS011;6979;52.116;5.286;2023-03-14T06:52:32;1.63;;;0.67;;
13816;SDS011;6979;52.116;5.286;2023-03-14T06:55:00;0.80;;;0.60;;
13816;SDS011;6979;52.116;5.286;2023-03-14T06:57:28;1.87;;;0.70;;
13816;SDS011;6979;52.116;5.286;2023-03-14T06:59:55;1.30;;;0.77;;
13816;SDS011;6979;52.116;5.286;2023-03-14T07:02:23;2.33;;;1.10;;
13816;SDS011;6979;52.116;5.286;2023-03-14T07:04:53;1.43;;;1.10;;
13816;SDS011;6979;52.116;5.286;2023-03-14T07:07:20;1.10;;;1.00;;
13816;SDS011;6979;52.116;5.286;2023-03-14T07:09:47;1.10;;;0.80;;
13816;SDS011;6979;52.116;5.286;2023-03-14T07:12:14;1.97;;;1.73;;
13816;SDS011;6979;52.116;5.286;2023-03-14T07:14:41;1.47;;;1.37;;
13816;SDS011;6979;52.116;5.286;2023-03-14T07:17:09;1.60;;;1.50;;
13816;SDS011;6979;52.116;5.286;2023-03-14T07:19:39;1.10;;;1.10;;
13816;SDS011;6979;52.116;5.286;2023-03-14T07:22:09;2.17;;;1.50;;
13816;SDS011;6979;52.116;5.286;2023-03-14T07:24:37;1.60;;;1.50;;
13816;SDS011;6979;52.116;5.286;2023-03-14T07:27:04;1.43;;;1.33;;
13816;SDS011;6979;52.116;5.286;2023-03-14T07:29:31;2.30;;;1.50;;
13816;SDS011;6979;52.116;5.286;2023-03-14T07:32:04;1.37;;;1.07;;
13816;SDS011;6979;52.116;5.286;2023-03-14T07:34:31;4.37;;;1.50;;
13816;SDS011;6979;52.116;5.286;2023-03-14T07:36:58;1.63;;;1.30;;
13816;SDS011;6979;52.116;5.286;2023-03-14T07:39:30;2.03;;;1.20;;
13816;SDS011;6979;52.116;5.286;2023-03-14T07:42:02;2.07;;;1.10;;
13816;SDS011;6979;52.116;5.286;2023-03-14T07:44:52;0.80;;;0.80;;
13816;SDS011;6979;52.116;5.286;2023-03-14T07:47:19;0.57;;;0.57;;
13816;SDS011;6979;52.116;5.286;2023-03-14T07:49:46;0.83;;;0.80;;
13816;SDS011;6979;52.116;5.286;2023-03-14T07:52:13;0.83;;;0.67;;
13816;SDS011;6979;52.116;5.286;2023-03-14T07:54:41;1.63;;;0.83;;
13816;SDS011;6979;52.116;5.286;2023-03-14T07:57:08;1.87;;;0.93;;
13816;SDS011;6979;52.116;5.286;2023-03-14T07:59:35;1.77;;;0.70;;
13816;SDS011;6979;52.116;5.286;2023-03-14T08:02:02;1.53;;;0.60;;
13816;SDS011;6979;52.116;5.286;2023-03-14T08:04:30;2.07;;;1.57;;
13816;SDS011;6979;52.116;5.286;2023-03-14T08:06:58;0.73;;;0.70;;
13816;SDS011;6979;52.116;5.286;2023-03-14T08:09:25;1.33;;;0.60;;
13816;SDS011;6979;52.116;5.286;2023-03-14T08:11:54;3.50;;;1.23;;
13816;SDS011;6979;52.116;5.286;2023-03-14T08:14:20;2.03;;;0.80;;
13816;SDS011;6979;52.116;5.286;2023-03-14T08:16:48;2.43;;;0.87;;
13816;SDS011;6979;52.116;5.286;2023-03-14T08:19:15;4.07;;;1.13;;
13816;SDS011;6979;52.116;5.286;2023-03-14T08:21:44;1.93;;;0.63;;
13816;SDS011;6979;52.116;5.286;2023-03-14T08:24:11;2.30;;;0.87;;
13816;SDS011;6979;52.116;5.286;2023-03-14T08:26:37;0.50;;;0.43;;
13816;SDS011;6979;52.116;5.286;2023-03-14T08:29:06;1.90;;;0.80;;
13816;SDS011;6979;52.116;5.286;2023-03-14T08:31:33;1.57;;;0.63;;
13816;SDS011;6979;52.116;5.286;2023-03-14T08:34:01;0.87;;;0.60;;
13816;SDS011;6979;52.116;5.286;2023-03-14T08:36:28;1.77;;;0.80;;
13816;SDS011;6979;52.116;5.286;2023-03-14T08:38:56;1.00;;;0.90;;
13816;SDS011;6979;52.116;5.286;2023-03-14T08:41:23;2.03;;;0.87;;
13816;SDS011;6979;52.116;5.286;2023-03-14T08:43:50;1.07;;;0.70;;
13816;SDS011;6979;52.116;5.286;2023-03-14T08:46:18;2.03;;;1.00;;
13816;SDS011;6979;52.116;5.286;2023-03-14T08:48:45;1.43;;;0.60;;
13816;SDS011;6979;52.116;5.286;2023-03-14T08:51:13;1.90;;;1.17;;
13816;SDS011;6979;52.116;5.286;2023-03-14T08:53:40;3.83;;;1.90;;
13816;SDS011;6979;52.116;5.286;2023-03-14T08:56:08;4.60;;;1.40;;
13816;SDS011;6979;52.116;5.286;2023-03-14T08:58:35;3.70;;;2.03;;
13816;SDS011;6979;52.116;5.286;2023-03-14T09:01:03;1.97;;;1.17;;
13816;SDS011;6979;52.116;5.286;2023-03-14T09:03:31;2.37;;;0.90;;
13816;SDS011;6979;52.116;5.286;2023-03-14T09:06:01;3.63;;;1.33;;
13816;SDS011;6979;52.116;5.286;2023-03-14T09:08:30;3.23;;;1.40;;
13816;SDS011;6979;52.116;5.286;2023-03-14T09:10:57;2.10;;;1.10;;
13816;SDS011;6979;52.116;5.286;2023-03-14T09:13:24;4.77;;;1.93;;
13816;SDS011;6979;52.116;5.286;2023-03-14T09:15:51;4.93;;;1.53;;
13816;SDS011;6979;52.116;5.286;2023-03-14T09:18:18;3.93;;;1.80;;
13816;SDS011;6979;52.116;5.286;2023-03-14T09:20:46;6.73;;;1.73;;
13816;SDS011;6979;52.116;5.286;2023-03-14T09:23:13;3.03;;;1.80;;
13816;SDS011;6979;52.116;5.286;2023-03-14T09:25:40;6.43;;;2.03;;
13816;SDS011;6979;52.116;5.286;2023-03-14T09:28:07;5.20;;;1.73;;
13816;SDS011;6979;52.116;5.286;2023-03-14T09:30:34;5.33;;;1.97;;
13816;SDS011;6979;52.116;5.286;2023-03-14T09:33:01;6.80;;;2.00;;
13816;SDS011;6979;52.116;5.286;2023-03-14T09:35:28;5.17;;;1.77;;
13816;SDS011;6979;52.116;5.286;2023-03-14T09:37:57;8.77;;;1.77;;
13816;SDS011;6979;52.116;5.286;2023-03-14T09:40:24;9.97;;;2.63;;
13816;SDS011;6979;52.116;5.286;2023-03-14T09:42:57;10.10;;;1.73;;
13816;SDS011;6979;52.116;5.286;2023-03-14T09:45:25;6.67;;;1.90;;
13816;SDS011;6979;52.116;5.286;2023-03-14T09:47:55;5.83;;;1.80;;
13816;SDS011;6979;52.116;5.286;2023-03-14T09:50:23;5.90;;;2.50;;
13816;SDS011;6979;52.116;5.286;2023-03-14T09:52:52;8.70;;;2.70;;
13816;SDS011;6979;52.116;5.286;2023-03-14T09:55:27;9.57;;;2.93;;
13816;SDS011;6979;52.116;5.286;2023-03-14T09:57:55;9.33;;;2.60;;
13816;SDS011;6979;52.116;5.286;2023-03-14T10:00:26;10.63;;;2.77;;
13816;SDS011;6979;52.116;5.286;2023-03-14T10:02:56;7.57;;;2.23;;
13816;SDS011;6979;52.116;5.286;2023-03-14T10:05:27;5.93;;;2.13;;
13816;SDS011;6979;52.116;5.286;2023-03-14T10:07:55;5.90;;;2.40;;
13816;SDS011;6979;52.116;5.286;2023-03-14T10:10:24;6.63;;;2.13;;
13816;SDS011;6979;52.116;5.286;2023-03-14T10:12:54;12.50;;;3.07;;
13816;SDS011;6979;52.116;5.286;2023-03-14T10:15:24;6.37;;;2.33;;
13816;SDS011;6979;52.116;5.286;2023-03-14T10:17:52;4.87;;;2.13;;
13816;SDS011;6979;52.116;5.286;2023-03-14T10:20:26;8.37;;;2.30;;
13816;SDS011;6979;52.116;5.286;2023-03-14T10:23:02;5.57;;;2.20;;
13816;SDS011;6979;52.116;5.286;2023-03-14T10:25:32;7.07;;;2.40;;
13816;SDS011;6979;52.116;5.286;2023-03-14T10:28:04;8.77;;;2.37;;
13816;SDS011;6979;52.116;5.286;2023-03-14T10:30:38;9.67;;;2.30;;
13816;SDS011;6979;52.116;5.286;2023-03-14T10:33:09;7.13;;;2.83;;
13816;SDS011;6979;52.116;5.286;2023-03-14T10:35:38;10.40;;;2.57;;
13816;SDS011;6979;52.116;5.286;2023-03-14T10:38:11;11.57;;;3.50;;
13816;SDS011;6979;52.116;5.286;2023-03-14T10:40:39;8.77;;;3.07;;
13816;SDS011;6979;52.116;5.286;2023-03-14T10:43:11;9.07;;;2.83;;
13816;SDS011;6979;52.116;5.286;2023-03-14T10:45:42;12.50;;;2.63;;
13816;SDS011;6979;52.116;5.286;2023-03-14T10:48:20;9.07;;;2.93;;
13816;SDS011;6979;52.116;5.286;2023-03-14T10:50:49;9.33;;;2.80;;
13816;SDS011;6979;52.116;5.286;2023-03-14T10:53:22;9.73;;;3.87;;
13816;SDS011;6979;52.116;5.286;2023-03-14T10:55:50;10.40;;;3.70;;
13816;SDS011;6979;52.116;5.286;2023-03-14T10:58:21;10.73;;;2.87;;
13816;SDS011;6979;52.116;5.286;2023-03-14T11:00:51;15.97;;;3.63;;
13816;SDS011;6979;52.116;5.286;2023-03-14T11:03:24;7.20;;;2.60;;
13816;SDS011;6979;52.116;5.286;2023-03-14T11:05:55;13.83;;;3.73;;
13816;SDS011;6979;52.116;5.286;2023-03-14T11:08:27;7.10;;;2.70;;
13816;SDS011;6979;52.116;5.286;2023-03-14T11:11:04;9.37;;;3.07;;
13816;SDS011;6979;52.116;5.286;2023-03-14T11:13:37;9.37;;;2.50;;
13816;SDS011;6979;52.116;5.286;2023-03-14T11:16:13;9.03;;;2.83;;
13816;SDS011;6979;52.116;5.286;2023-03-14T11:18:48;9.70;;;3.30;;
13816;SDS011;6979;52.116;5.286;2023-03-14T11:21:27;11.27;;;3.20;;
13816;SDS011;6979;52.116;5.286;2023-03-14T11:26:49;13.17;;;3.40;;
13816;SDS011;6979;52.116;5.286;2023-03-14T11:29:20;9.60;;;3.10;;
13816;SDS011;6979;52.116;5.286;2023-03-14T11:31:51;8.57;;;2.67;;
13816;SDS011;6979;52.116;5.286;2023-03-14T11:34:25;10.57;;;3.30;;
13816;SDS011;6979;52.116;5.286;2023-03-14T11:36:56;8.07;;;2.97;;
13816;SDS011;6979;52.116;5.286;2023-03-14T11:39:37;7.53;;;2.53;;
13816;SDS011;6979;52.116;5.286;2023-03-14T11:42:07;6.00;;;2.60;;
13816;SDS011;6979;52.116;5.286;2023-03-14T11:44:38;6.17;;;2.00;;
13816;SDS011;6979;52.116;5.286;2023-03-14T11:47:07;5.23;;;2.47;;
13816;SDS011;6979;52.116;5.286;2023-03-14T11:49:40;6.90;;;2.20;;
13816;SDS011;6979;52.116;5.286;2023-03-14T11:52:10;6.00;;;2.50;;
13816;SDS011;6979;52.116;5.286;2023-03-14T11:54:44;4.97;;;2.10;;
13816;SDS011;6979;52.116;5.286;2023-03-14T11:57:16;5.20;;;2.47;;
13816;SDS011;6979;52.116;5.286;2023-03-14T11:59:47;5.77;;;2.83;;
13816;SDS011;6979;52.116;5.286;2023-03-14T12:02:21;6.53;;;1.80;;
13816;SDS011;6979;52.116;5.286;2023-03-14T12:04:53;6.80;;;2.03;;
13816;SDS011;6979;52.116;5.286;2023-03-14T12:07:44;8.23;;;3.27;;
13816;SDS011;6979;52.116;5.286;2023-03-14T12:10:26;6.13;;;2.30;;
13816;SDS011;6979;52.116;5.286;2023-03-14T12:12:53;5.10;;;2.10;;
13816;SDS011;6979;52.116;5.286;2023-03-14T12:15:21;4.40;;;1.70;;
13816;SDS011;6979;52.116;5.286;2023-03-14T12:17:52;7.17;;;2.57;;
13816;SDS011;6979;52.116;5.286;2023-03-14T12:20:22;6.20;;;2.33;;
13816;SDS011;6979;52.116;5.286;2023-03-14T12:22:50;6.43;;;2.10;;
13816;SDS011;6979;52.116;5.286;2023-03-14T12:25:20;4.63;;;2.07;;
13816;SDS011;6979;52.116;5.286;2023-03-14T12:30:47;4.23;;;2.00;;
13816;SDS011;6979;52.116;5.286;2023-03-14T12:33:21;3.50;;;1.73;;
13816;SDS011;6979;52.116;5.286;2023-03-14T12:36:00;11.73;;;2.57;;
13816;SDS011;6979;52.116;5.286;2023-03-14T12:38:39;3.80;;;1.60;;
13816;SDS011;6979;52.116;5.286;2023-03-14T12:41:14;4.47;;;1.47;;
13816;SDS011;6979;52.116;5.286;2023-03-14T12:43:47;3.83;;;2.07;;
13816;SDS011;6979;52.116;5.286;2023-03-14T12:46:15;4.77;;;2.17;;
13816;SDS011;6979;52.116;5.286;2023-03-14T12:48:47;3.00;;;1.40;;
13816;SDS011;6979;52.116;5.286;2023-03-14T12:51:16;4.40;;;1.70;;
13816;SDS011;6979;52.116;5.286;2023-03-14T12:53:52;2.77;;;1.40;;
13816;SDS011;6979;52.116;5.286;2023-03-14T12:56:28;3.23;;;1.40;;
13816;SDS011;6979;52.116;5.286;2023-03-14T13:02:23;4.33;;;1.23;;
13816;SDS011;6979;52.116;5.286;2023-03-14T13:04:59;2.60;;;1.50;;
13816;SDS011;6979;52.116;5.286;2023-03-14T13:07:30;2.77;;;1.73;;
13816;SDS011;6979;52.116;5.286;2023-03-14T13:10:23;2.33;;;1.37;;
13816;SDS011;6979;52.116;5.286;2023-03-14T13:12:51;2.20;;;1.50;;
13816;SDS011;6979;52.116;5.286;2023-03-14T13:15:27;2.73;;;1.27;;
13816;SDS011;6979;52.116;5.286;2023-03-14T13:17:58;4.20;;;1.47;;
13816;SDS011;6979;52.116;5.286;2023-03-14T13:20:29;4.90;;;2.00;;
13816;SDS011;6979;52.116;5.286;2023-03-14T13:22:58;5.43;;;1.30;;
13816;SDS011;6979;52.116;5.286;2023-03-14T13:25:33;2.60;;;1.30;;
13816;SDS011;6979;52.116;5.286;2023-03-14T13:28:01;3.30;;;1.33;;
13816;SDS011;6979;52.116;5.286;2023-03-14T13:30:35;3.80;;;1.77;;
13816;SDS011;6979;52.116;5.286;2023-03-14T13:33:10;2.63;;;1.20;;
13816;SDS011;6979;52.116;5.286;2023-03-14T13:35:41;4.93;;;1.70;;
13816;SDS011;6979;52.116;5.286;2023-03-14T13:38:13;3.00;;;1.50;;
13816;SDS011;6979;52.116;5.286;2023-03-14T13:40:44;3.23;;;1.30;;
13816;SDS011;6979;52.116;5.286;2023-03-14T13:43:16;2.57;;;1.17;;
13816;SDS011;6979;52.116;5.286;2023-03-14T13:45:48;4.17;;;2.13;;
13816;SDS011;6979;52.116;5.286;2023-03-14T13:48:17;5.00;;;1.97;;
13816;SDS011;6979;52.116;5.286;2023-03-14T13:50:55;3.10;;;1.67;;
13816;SDS011;6979;52.116;5.286;2023-03-14T13:53:24;4.87;;;1.90;;
13816;SDS011;6979;52.116;5.286;2023-03-14T13:55:53;4.67;;;1.83;;
13816;SDS011;6979;52.116;5.286;2023-03-14T13:58:21;4.37;;;1.90;;
13816;SDS011;6979;52.116;5.286;2023-03-14T14:01:05;7.30;;;2.03;;
13816;SDS011;6979;52.116;5.286;2023-03-14T14:03:37;4.67;;;2.07;;
13816;SDS011;6979;52.116;5.286;2023-03-14T14:06:10;4.70;;;2.03;;
13816;SDS011;6979;52.116;5.286;2023-03-14T14:08:45;5.20;;;2.40;;
13816;SDS011;6979;52.116;5.286;2023-03-14T14:11:16;4.07;;;1.67;;
13816;SDS011;6979;52.116;5.286;2023-03-14T14:13:48;2.53;;;1.67;;
13816;SDS011;6979;52.116;5.286;2023-03-14T14:16:16;2.70;;;1.37;;
13816;SDS011;6979;52.116;5.286;2023-03-14T14:18:48;3.77;;;1.90;;
13816;SDS011;6979;52.116;5.286;2023-03-14T14:21:15;5.57;;;2.03;;
13816;SDS011;6979;52.116;5.286;2023-03-14T14:23:42;1.90;;;1.20;;
13816;SDS011;6979;52.116;5.286;2023-03-14T14:26:17;2.70;;;1.50;;
13816;SDS011;6979;52.116;5.286;2023-03-14T14:28:45;1.73;;;1.20;;
13816;SDS011;6979;52.116;5.286;2023-03-14T14:31:24;2.80;;;1.33;;
13816;SDS011;6979;52.116;5.286;2023-03-14T14:33:53;2.27;;;1.00;;
13816;SDS011;6979;52.116;5.286;2023-03-14T14:36:22;4.37;;;1.83;;
13816;SDS011;6979;52.116;5.286;2023-03-14T14:38:54;4.30;;;1.30;;
13816;SDS011;6979;52.116;5.286;2023-03-14T14:41:27;4.87;;;1.20;;
13816;SDS011;6979;52.116;5.286;2023-03-14T14:43:56;2.67;;;1.40;;
13816;SDS011;6979;52.116;5.286;2023-03-14T14:46:26;3.90;;;1.33;;
13816;SDS011;6979;52.116;5.286;2023-03-14T14:48:56;3.43;;;1.40;;
13816;SDS011;6979;52.116;5.286;2023-03-14T14:51:25;2.57;;;1.50;;
13816;SDS011;6979;52.116;5.286;2023-03-14T14:54:04;2.77;;;1.20;;
13816;SDS011;6979;52.116;5.286;2023-03-14T14:56:39;2.53;;;1.30;;
13816;SDS011;6979;52.116;5.286;2023-03-14T14:59:22;3.30;;;1.40;;
13816;SDS011;6979;52.116;5.286;2023-03-14T15:01:55;2.00;;;1.10;;
13816;SDS011;6979;52.116;5.286;2023-03-14T15:04:26;2.40;;;1.03;;
13816;SDS011;6979;52.116;5.286;2023-03-14T15:06:55;3.43;;;1.37;;
13816;SDS011;6979;52.116;5.286;2023-03-14T15:09:22;2.37;;;1.10;;
13816;SDS011;6979;52.116;5.286;2023-03-14T15:11:50;3.30;;;2.00;;
13816;SDS011;6979;52.116;5.286;2023-03-14T15:14:17;3.70;;;1.53;;
13816;SDS011;6979;52.116;5.286;2023-03-14T15:16:47;3.80;;;1.50;;
13816;SDS011;6979;52.116;5.286;2023-03-14T15:19:19;5.53;;;1.43;;
13816;SDS011;6979;52.116;5.286;2023-03-14T15:21:48;3.63;;;1.33;;
13816;SDS011;6979;52.116;5.286;2023-03-14T15:24:15;3.33;;;1.63;;
13816;SDS011;6979;52.116;5.286;2023-03-14T15:26:42;3.17;;;1.30;;
13816;SDS011;6979;52.116;5.286;2023-03-14T15:29:12;2.47;;;1.10;;
13816;SDS011;6979;52.116;5.286;2023-03-14T15:31:39;3.50;;;1.67;;